sensor_id;sensor_type;location;lat;lon;timestamp;temperature;humidity
24902;DHT22;31328;51.402;0.016;2023-02-28T00:01:14;4.50;96.70
24902;DHT22;31328;51.402;0.016;2023-02-28T00:03:41;4.40;96.70
24902;DHT22;31328;51.402;0.016;2023-02-28T00:06:08;4.40;96.90
24902;DHT22;31328;51.402;0.016;2023-02-28T00:08:36;4.40;97.00
24902;DHT22;31328;51.402;0.016;2023-02-28T00:11:04;4.30;97.00
24902;DHT22;31328;51.402;0.016;2023-02-28T00:13:31;4.30;97.00
24902;DHT22;31328;51.402;0.016;2023-02-28T00:16:07;4.30;97.20
24902;DHT22;31328;51.402;0.016;2023-02-28T00:18:35;4.20;97.20
24902;DHT22;31328;51.402;0.016;2023-02-28T00:21:02;4.20;97.30
24902;DHT22;31328;51.402;0.016;2023-02-28T00:23:28;4.20;97.40
24902;DHT22;31328;51.402;0.016;2023-02-28T00:25:55;4.20;97.50
24902;DHT22;31328;51.402;0.016;2023-02-28T00:28:22;4.20;97.50
24902;DHT22;31328;51.402;0.016;2023-02-28T00:30:48;4.20;97.60
24902;DHT22;31328;51.402;0.016;2023-02-28T00:33:15;4.20;97.60
24902;DHT22;31328;51.402;0.016;2023-02-28T00:35:41;4.20;97.70
24902;DHT22;31328;51.402;0.016;2023-02-28T00:38:09;4.10;97.80
24902;DHT22;31328;51.402;0.016;2023-02-28T00:40:35;4.10;97.80
24902;DHT22;31328;51.402;0.016;2023-02-28T00:43:01;4.10;97.90
24902;DHT22;31328;51.402;0.016;2023-02-28T00:45:29;4.10;97.90
24902;DHT22;31328;51.402;0.016;2023-02-28T00:47:57;4.10;98.00
24902;DHT22;31328;51.402;0.016;2023-02-28T00:50:23;4.00;98.00
24902;DHT22;31328;51.402;0.016;2023-02-28T00:52:50;4.00;98.20
24902;DHT22;31328;51.402;0.016;2023-02-28T00:55:16;4.00;98.20
24902;DHT22;31328;51.402;0.016;2023-02-28T00:57:42;4.00;98.40
24902;DHT22;31328;51.402;0.016;2023-02-28T01:00:10;4.00;98.30
24902;DHT22;31328;51.402;0.016;2023-02-28T01:02:37;3.90;98.30
24902;DHT22;31328;51.402;0.016;2023-02-28T01:05:03;3.90;98.60
24902;DHT22;31328;51.402;0.016;2023-02-28T01:07:30;3.90;98.60
24902;DHT22;31328;51.402;0.016;2023-02-28T01:09:56;3.80;98.60
24902;DHT22;31328;51.402;0.016;2023-02-28T01:12:24;3.80;98.70
24902;DHT22;31328;51.402;0.016;2023-02-28T01:14:51;3.80;98.70
24902;DHT22;31328;51.402;0.016;2023-02-28T01:17:17;3.80;98.80
24902;DHT22;31328;51.402;0.016;2023-02-28T01:19:43;3.80;98.80
24902;DHT22;31328;51.402;0.016;2023-02-28T01:22:10;3.80;98.90
24902;DHT22;31328;51.402;0.016;2023-02-28T01:24:37;3.70;98.90
24902;DHT22;31328;51.402;0.016;2023-02-28T01:27:04;3.70;98.90
24902;DHT22;31328;51.402;0.016;2023-02-28T01:29:30;3.70;99.00
24902;DHT22;31328;51.402;0.016;2023-02-28T01:31:56;3.70;99.10
24902;DHT22;31328;51.402;0.016;2023-02-28T01:34:25;3.70;99.20
24902;DHT22;31328;51.402;0.016;2023-02-28T01:36:51;3.70;99.30
24902;DHT22;31328;51.402;0.016;2023-02-28T01:39:19;3.70;99.30
24902;DHT22;31328;51.402;0.016;2023-02-28T01:41:45;3.60;99.40
24902;DHT22;31328;51.402;0.016;2023-02-28T01:47:15;3.60;99.50
24902;DHT22;31328;51.402;0.016;2023-02-28T01:49:42;3.60;99.60
24902;DHT22;31328;51.402;0.016;2023-02-28T01:52:09;3.60;99.60
24902;DHT22;31328;51.402;0.016;2023-02-28T01:54:50;3.50;99.60
24902;DHT22;31328;51.402;0.016;2023-02-28T01:57:21;3.50;99.70
24902;DHT22;31328;51.402;0.016;2023-02-28T01:59:54;3.60;99.80
24902;DHT22;31328;51.402;0.016;2023-02-28T02:02:24;3.50;99.90
24902;DHT22;31328;51.402;0.016;2023-02-28T02:07:32;3.60;99.90
24902;DHT22;31328;51.402;0.016;2023-02-28T02:18:32;3.60;99.90
24902;DHT22;31328;51.402;0.016;2023-02-28T02:27:03;3.60;99.90
24902;DHT22;31328;51.402;0.016;2023-02-28T02:30:13;3.50;99.90
24902;DHT22;31328;51.402;0.016;2023-02-28T02:38:36;3.60;99.90
24902;DHT22;31328;51.402;0.016;2023-02-28T02:41:14;3.70;99.90
24902;DHT22;31328;51.402;0.016;2023-02-28T02:44:26;3.60;99.90
24902;DHT22;31328;51.402;0.016;2023-02-28T02:46:52;3.60;99.90
24902;DHT22;31328;51.402;0.016;2023-02-28T02:49:30;3.60;99.90
24902;DHT22;31328;51.402;0.016;2023-02-28T02:52:02;3.60;99.90
24902;DHT22;31328;51.402;0.016;2023-02-28T02:54:44;3.60;99.90
24902;DHT22;31328;51.402;0.016;2023-02-28T02:57:34;3.50;99.90
24902;DHT22;31328;51.402;0.016;2023-02-28T03:00:04;3.50;99.90
24902;DHT22;31328;51.402;0.016;2023-02-28T03:02:35;3.40;99.90
24902;DHT22;31328;51.402;0.016;2023-02-28T03:05:14;3.30;99.90
24902;DHT22;31328;51.402;0.016;2023-02-28T03:07:43;3.20;99.90
24902;DHT22;31328;51.402;0.016;2023-02-28T03:18:49;2.90;99.90
24902;DHT22;31328;51.402;0.016;2023-02-28T03:22:03;2.90;99.90
24902;DHT22;31328;51.402;0.016;2023-02-28T03:24:31;2.90;99.90
24902;DHT22;31328;51.402;0.016;2023-02-28T03:27:27;2.80;99.90
24902;DHT22;31328;51.402;0.016;2023-02-28T03:30:05;2.70;99.90
24902;DHT22;31328;51.402;0.016;2023-02-28T03:32:39;2.70;99.90
24902;DHT22;31328;51.402;0.016;2023-02-28T03:35:16;2.60;99.90
24902;DHT22;31328;51.402;0.016;2023-02-28T03:37:52;2.60;99.90
24902;DHT22;31328;51.402;0.016;2023-02-28T03:40:23;2.60;99.90
24902;DHT22;31328;51.402;0.016;2023-02-28T03:42:56;2.60;99.90
24902;DHT22;31328;51.402;0.016;2023-02-28T03:45:27;2.60;99.90
24902;DHT22;31328;51.402;0.016;2023-02-28T03:47:55;2.50;99.90
24902;DHT22;31328;51.402;0.016;2023-02-28T03:50:34;2.50;99.90
24902;DHT22;31328;51.402;0.016;2023-02-28T03:53:04;2.50;99.90
24902;DHT22;31328;51.402;0.016;2023-02-28T03:55:37;2.60;99.90
24902;DHT22;31328;51.402;0.016;2023-02-28T04:00:54;2.60;99.90
24902;DHT22;31328;51.402;0.016;2023-02-28T04:03:21;2.70;99.90
24902;DHT22;31328;51.402;0.016;2023-02-28T04:05:51;2.70;99.90
24902;DHT22;31328;51.402;0.016;2023-02-28T04:08:18;2.70;99.90
24902;DHT22;31328;51.402;0.016;2023-02-28T04:10:48;2.80;99.90
24902;DHT22;31328;51.402;0.016;2023-02-28T04:13:15;2.80;99.90
24902;DHT22;31328;51.402;0.016;2023-02-28T04:15:42;2.80;99.90
24902;DHT22;31328;51.402;0.016;2023-02-28T04:18:08;2.80;99.90
24902;DHT22;31328;51.402;0.016;2023-02-28T04:20:35;2.90;99.90
24902;DHT22;31328;51.402;0.016;2023-02-28T04:23:02;2.90;99.90
24902;DHT22;31328;51.402;0.016;2023-02-28T04:25:28;2.90;99.90
24902;DHT22;31328;51.402;0.016;2023-02-28T04:27:55;2.90;99.90
24902;DHT22;31328;51.402;0.016;2023-02-28T04:30:21;2.90;99.90
24902;DHT22;31328;51.402;0.016;2023-02-28T04:32:47;2.90;99.90
24902;DHT22;31328;51.402;0.016;2023-02-28T04:35:14;2.90;99.90
24902;DHT22;31328;51.402;0.016;2023-02-28T04:37:40;2.90;99.90
24902;DHT22;31328;51.402;0.016;2023-02-28T04:40:07;2.90;99.90
24902;DHT22;31328;51.402;0.016;2023-02-28T04:42:33;2.90;99.90
24902;DHT22;31328;51.402;0.016;2023-02-28T04:45:03;2.90;99.90
24902;DHT22;31328;51.402;0.016;2023-02-28T04:47:29;2.90;99.90
24902;DHT22;31328;51.402;0.016;2023-02-28T04:49:55;2.80;99.90
24902;DHT22;31328;51.402;0.016;2023-02-28T04:52:22;2.80;99.90
24902;DHT22;31328;51.402;0.016;2023-02-28T04:54:48;2.80;99.90
24902;DHT22;31328;51.402;0.016;2023-02-28T04:57:15;2.80;99.90
24902;DHT22;31328;51.402;0.016;2023-02-28T04:59:42;2.80;99.90
24902;DHT22;31328;51.402;0.016;2023-02-28T05:02:08;2.80;99.90
24902;DHT22;31328;51.402;0.016;2023-02-28T05:04:35;2.70;99.90
24902;DHT22;31328;51.402;0.016;2023-02-28T05:07:02;2.70;99.90
24902;DHT22;31328;51.402;0.016;2023-02-28T05:09:29;2.70;99.90
24902;DHT22;31328;51.402;0.016;2023-02-28T05:11:56;2.70;99.90
24902;DHT22;31328;51.402;0.016;2023-02-28T05:14:22;2.60;99.90
24902;DHT22;31328;51.402;0.016;2023-02-28T05:16:49;2.60;99.90
24902;DHT22;31328;51.402;0.016;2023-02-28T05:19:15;2.70;99.90
24902;DHT22;31328;51.402;0.016;2023-02-28T05:21:50;2.60;99.90
24902;DHT22;31328;51.402;0.016;2023-02-28T05:24:17;2.50;99.90
24902;DHT22;31328;51.402;0.016;2023-02-28T05:26:50;2.50;99.90
24902;DHT22;31328;51.402;0.016;2023-02-28T05:29:18;2.50;99.90
24902;DHT22;31328;51.402;0.016;2023-02-28T05:31:44;2.40;99.90
24902;DHT22;31328;51.402;0.016;2023-02-28T05:34:11;2.40;99.90
24902;DHT22;31328;51.402;0.016;2023-02-28T05:36:39;2.40;99.90
24902;DHT22;31328;51.402;0.016;2023-02-28T05:39:06;2.40;99.90
24902;DHT22;31328;51.402;0.016;2023-02-28T05:41:33;2.40;99.90
24902;DHT22;31328;51.402;0.016;2023-02-28T05:44:00;2.40;99.90
24902;DHT22;31328;51.402;0.016;2023-02-28T05:46:27;2.30;99.90
24902;DHT22;31328;51.402;0.016;2023-02-28T05:48:53;2.40;99.90
24902;DHT22;31328;51.402;0.016;2023-02-28T05:51:21;2.40;99.90
24902;DHT22;31328;51.402;0.016;2023-02-28T05:53:48;2.40;99.90
24902;DHT22;31328;51.402;0.016;2023-02-28T05:56:15;2.40;99.90
24902;DHT22;31328;51.402;0.016;2023-02-28T05:58:41;2.40;99.90
24902;DHT22;31328;51.402;0.016;2023-02-28T06:01:38;2.50;99.90
24902;DHT22;31328;51.402;0.016;2023-02-28T06:04:08;2.60;99.90
24902;DHT22;31328;51.402;0.016;2023-02-28T06:06:35;2.60;99.90
24902;DHT22;31328;51.402;0.016;2023-02-28T06:09:02;2.70;99.90
24902;DHT22;31328;51.402;0.016;2023-02-28T06:11:29;2.70;99.90
24902;DHT22;31328;51.402;0.016;2023-02-28T06:13:57;2.80;99.90
24902;DHT22;31328;51.402;0.016;2023-02-28T06:16:29;2.80;99.90
24902;DHT22;31328;51.402;0.016;2023-02-28T06:19:00;2.90;99.90
24902;DHT22;31328;51.402;0.016;2023-02-28T06:21:28;2.90;99.90
24902;DHT22;31328;51.402;0.016;2023-02-28T06:23:55;2.90;99.90
24902;DHT22;31328;51.402;0.016;2023-02-28T06:26:22;3.00;99.90
24902;DHT22;31328;51.402;0.016;2023-02-28T06:28:49;3.00;99.90
24902;DHT22;31328;51.402;0.016;2023-02-28T06:31:17;3.10;99.90
24902;DHT22;31328;51.402;0.016;2023-02-28T06:33:45;3.10;99.90
24902;DHT22;31328;51.402;0.016;2023-02-28T06:36:13;3.10;99.90
24902;DHT22;31328;51.402;0.016;2023-02-28T06:38:40;3.20;99.90
24902;DHT22;31328;51.402;0.016;2023-02-28T06:41:08;3.30;99.90
24902;DHT22;31328;51.402;0.016;2023-02-28T06:43:40;3.30;99.90
24902;DHT22;31328;51.402;0.016;2023-02-28T06:46:08;3.30;99.90
24902;DHT22;31328;51.402;0.016;2023-02-28T06:48:35;3.30;99.90
24902;DHT22;31328;51.402;0.016;2023-02-28T06:51:11;3.40;99.90
24902;DHT22;31328;51.402;0.016;2023-02-28T06:53:37;3.40;99.90
24902;DHT22;31328;51.402;0.016;2023-02-28T06:56:10;3.40;99.90
24902;DHT22;31328;51.402;0.016;2023-02-28T06:58:37;3.40;99.90
24902;DHT22;31328;51.402;0.016;2023-02-28T07:01:04;3.50;99.90
24902;DHT22;31328;51.402;0.016;2023-02-28T07:03:30;3.50;99.90
24902;DHT22;31328;51.402;0.016;2023-02-28T07:05:57;3.50;99.90
24902;DHT22;31328;51.402;0.016;2023-02-28T07:08:24;3.50;99.90
24902;DHT22;31328;51.402;0.016;2023-02-28T07:10:54;3.60;99.90
24902;DHT22;31328;51.402;0.016;2023-02-28T07:13:22;3.60;99.90
24902;DHT22;31328;51.402;0.016;2023-02-28T07:16:03;3.70;99.90
24902;DHT22;31328;51.402;0.016;2023-02-28T07:18:30;3.60;99.90
24902;DHT22;31328;51.402;0.016;2023-02-28T07:20:56;3.70;99.90
24902;DHT22;31328;51.402;0.016;2023-02-28T07:23:23;3.70;99.90
24902;DHT22;31328;51.402;0.016;2023-02-28T07:25:50;3.70;99.90
24902;DHT22;31328;51.402;0.016;2023-02-28T07:28:16;3.70;99.90
24902;DHT22;31328;51.402;0.016;2023-02-28T07:30:43;3.80;99.90
24902;DHT22;31328;51.402;0.016;2023-02-28T07:33:09;3.80;99.90
24902;DHT22;31328;51.402;0.016;2023-02-28T07:35:36;3.90;99.90
24902;DHT22;31328;51.402;0.016;2023-02-28T07:38:02;3.90;99.90
24902;DHT22;31328;51.402;0.016;2023-02-28T07:40:31;3.90;99.90
24902;DHT22;31328;51.402;0.016;2023-02-28T07:42:59;4.00;99.90
24902;DHT22;31328;51.402;0.016;2023-02-28T07:45:26;4.00;99.90
24902;DHT22;31328;51.402;0.016;2023-02-28T07:47:53;4.00;99.90
24902;DHT22;31328;51.402;0.016;2023-02-28T07:50:19;4.00;99.90
24902;DHT22;31328;51.402;0.016;2023-02-28T07:52:45;4.10;99.90
24902;DHT22;31328;51.402;0.016;2023-02-28T07:55:11;4.10;99.90
24902;DHT22;31328;51.402;0.016;2023-02-28T07:57:40;4.10;99.90
24902;DHT22;31328;51.402;0.016;2023-02-28T08:00:08;4.20;99.90
24902;DHT22;31328;51.402;0.016;2023-02-28T08:02:38;4.20;99.90
24902;DHT22;31328;51.402;0.016;2023-02-28T08:05:05;4.30;99.90
24902;DHT22;31328;51.402;0.016;2023-02-28T08:07:32;4.30;99.90
24902;DHT22;31328;51.402;0.016;2023-02-28T08:09:59;4.40;99.90
24902;DHT22;31328;51.402;0.016;2023-02-28T08:12:26;4.40;99.90
24902;DHT22;31328;51.402;0.016;2023-02-28T08:14:52;4.50;99.90
24902;DHT22;31328;51.402;0.016;2023-02-28T08:17:18;4.50;99.90
24902;DHT22;31328;51.402;0.016;2023-02-28T08:19:48;4.60;99.90
24902;DHT22;31328;51.402;0.016;2023-02-28T08:22:15;4.70;99.90
24902;DHT22;31328;51.402;0.016;2023-02-28T08:24:41;4.70;99.90
24902;DHT22;31328;51.402;0.016;2023-02-28T08:27:09;4.80;99.90
24902;DHT22;31328;51.402;0.016;2023-02-28T08:29:37;4.80;99.90
24902;DHT22;31328;51.402;0.016;2023-02-28T08:32:05;4.90;99.90
24902;DHT22;31328;51.402;0.016;2023-02-28T08:34:31;4.90;99.90
24902;DHT22;31328;51.402;0.016;2023-02-28T08:36:57;5.00;99.90
24902;DHT22;31328;51.402;0.016;2023-02-28T08:39:24;5.10;99.90
24902;DHT22;31328;51.402;0.016;2023-02-28T08:41:50;5.20;99.90
24902;DHT22;31328;51.402;0.016;2023-02-28T08:44:16;5.20;99.90
24902;DHT22;31328;51.402;0.016;2023-02-28T08:46:43;5.30;99.90
24902;DHT22;31328;51.402;0.016;2023-02-28T08:49:10;5.30;99.90
24902;DHT22;31328;51.402;0.016;2023-02-28T08:51:36;5.40;99.90
24902;DHT22;31328;51.402;0.016;2023-02-28T08:54:10;5.50;99.90
24902;DHT22;31328;51.402;0.016;2023-02-28T08:56:38;5.50;99.90
24902;DHT22;31328;51.402;0.016;2023-02-28T08:59:05;5.60;99.90
24902;DHT22;31328;51.402;0.016;2023-02-28T09:01:31;5.70;99.90
24902;DHT22;31328;51.402;0.016;2023-02-28T09:03:58;5.70;99.90
24902;DHT22;31328;51.402;0.016;2023-02-28T09:06:26;5.80;99.90
24902;DHT22;31328;51.402;0.016;2023-02-28T09:08:52;5.80;99.90
24902;DHT22;31328;51.402;0.016;2023-02-28T09:11:19;5.90;99.90
24902;DHT22;31328;51.402;0.016;2023-02-28T09:13:46;5.90;99.90
24902;DHT22;31328;51.402;0.016;2023-02-28T09:16:14;6.00;99.90
24902;DHT22;31328;51.402;0.016;2023-02-28T09:18:41;6.00;99.90
24902;DHT22;31328;51.402;0.016;2023-02-28T09:21:10;6.10;99.90
24902;DHT22;31328;51.402;0.016;2023-02-28T09:23:40;6.10;99.90
24902;DHT22;31328;51.402;0.016;2023-02-28T09:26:11;6.20;99.90
24902;DHT22;31328;51.402;0.016;2023-02-28T09:28:39;6.20;99.90
24902;DHT22;31328;51.402;0.016;2023-02-28T09:31:05;6.30;99.90
24902;DHT22;31328;51.402;0.016;2023-02-28T09:33:31;6.30;99.90
24902;DHT22;31328;51.402;0.016;2023-02-28T09:36:00;6.30;99.90
24902;DHT22;31328;51.402;0.016;2023-02-28T09:38:27;6.30;99.90
24902;DHT22;31328;51.402;0.016;2023-02-28T09:41:00;6.40;99.90
24902;DHT22;31328;51.402;0.016;2023-02-28T09:43:35;6.40;99.90
24902;DHT22;31328;51.402;0.016;2023-02-28T09:48:52;6.50;99.90
24902;DHT22;31328;51.402;0.016;2023-02-28T09:54:17;6.50;99.90
24902;DHT22;31328;51.402;0.016;2023-02-28T10:02:21;6.60;99.90
24902;DHT22;31328;51.402;0.016;2023-02-28T10:04:49;6.50;99.90
24902;DHT22;31328;51.402;0.016;2023-02-28T10:07:25;6.60;99.90
24902;DHT22;31328;51.402;0.016;2023-02-28T10:09:59;6.60;99.90
24902;DHT22;31328;51.402;0.016;2023-02-28T10:12:30;6.60;99.90
24902;DHT22;31328;51.402;0.016;2023-02-28T10:14:59;6.60;99.90
24902;DHT22;31328;51.402;0.016;2023-02-28T10:17:38;6.60;99.90
24902;DHT22;31328;51.402;0.016;2023-02-28T10:20:11;6.60;99.90
24902;DHT22;31328;51.402;0.016;2023-02-28T10:22:58;6.60;99.90
24902;DHT22;31328;51.402;0.016;2023-02-28T10:25:35;6.70;99.90
24902;DHT22;31328;51.402;0.016;2023-02-28T10:28:13;6.70;99.90
24902;DHT22;31328;51.402;0.016;2023-02-28T10:30:43;6.70;99.90
24902;DHT22;31328;51.402;0.016;2023-02-28T10:33:28;6.70;99.90
24902;DHT22;31328;51.402;0.016;2023-02-28T10:35:55;6.80;99.90
24902;DHT22;31328;51.402;0.016;2023-02-28T10:38:25;6.80;99.90
24902;DHT22;31328;51.402;0.016;2023-02-28T10:41:07;6.80;99.90
24902;DHT22;31328;51.402;0.016;2023-02-28T10:43:34;6.90;99.90
24902;DHT22;31328;51.402;0.016;2023-02-28T10:48:59;6.90;99.90
24902;DHT22;31328;51.402;0.016;2023-02-28T10:51:34;7.00;99.90
24902;DHT22;31328;51.402;0.016;2023-02-28T10:54:02;7.00;99.90
24902;DHT22;31328;51.402;0.016;2023-02-28T10:56:29;7.00;99.90
24902;DHT22;31328;51.402;0.016;2023-02-28T10:58:59;7.10;99.90
24902;DHT22;31328;51.402;0.016;2023-02-28T11:01:39;7.10;99.90
24902;DHT22;31328;51.402;0.016;2023-02-28T11:04:33;7.10;99.90
24902;DHT22;31328;51.402;0.016;2023-02-28T11:07:21;7.20;99.90
24902;DHT22;31328;51.402;0.016;2023-02-28T11:09:52;7.10;99.90
24902;DHT22;31328;51.402;0.016;2023-02-28T11:14:54;7.20;99.90
24902;DHT22;31328;51.402;0.016;2023-02-28T11:17:30;7.10;99.90
24902;DHT22;31328;51.402;0.016;2023-02-28T11:20:01;7.10;99.90
24902;DHT22;31328;51.402;0.016;2023-02-28T11:22:32;7.10;99.90
24902;DHT22;31328;51.402;0.016;2023-02-28T11:25:07;7.10;99.90
24902;DHT22;31328;51.402;0.016;2023-02-28T11:27:46;7.20;99.90
24902;DHT22;31328;51.402;0.016;2023-02-28T11:30:39;7.20;99.90
24902;DHT22;31328;51.402;0.016;2023-02-28T11:33:54;7.20;99.90
24902;DHT22;31328;51.402;0.016;2023-02-28T11:36:30;7.20;99.90
24902;DHT22;31328;51.402;0.016;2023-02-28T11:39:01;7.20;99.90
24902;DHT22;31328;51.402;0.016;2023-02-28T11:44:19;7.20;99.90
24902;DHT22;31328;51.402;0.016;2023-02-28T11:46:54;7.20;99.90
24902;DHT22;31328;51.402;0.016;2023-02-28T11:49:28;7.20;99.90
24902;DHT22;31328;51.402;0.016;2023-02-28T11:52:21;7.20;99.90
24902;DHT22;31328;51.402;0.016;2023-02-28T11:57:37;7.20;99.90
24902;DHT22;31328;51.402;0.016;2023-02-28T12:03:22;7.20;99.90
24902;DHT22;31328;51.402;0.016;2023-02-28T12:22:16;7.30;99.90
24902;DHT22;31328;51.402;0.016;2023-02-28T12:27:40;7.50;99.90
24902;DHT22;31328;51.402;0.016;2023-02-28T12:30:27;7.60;99.90
24902;DHT22;31328;51.402;0.016;2023-02-28T12:33:08;7.70;99.90
24902;DHT22;31328;51.402;0.016;2023-02-28T12:35:41;7.70;99.90
24902;DHT22;31328;51.402;0.016;2023-02-28T12:41:34;7.70;99.90
24902;DHT22;31328;51.402;0.016;2023-02-28T12:44:08;7.60;99.90
24902;DHT22;31328;51.402;0.016;2023-02-28T12:46:39;7.60;99.90
24902;DHT22;31328;51.402;0.016;2023-02-28T12:49:23;7.60;99.90
24902;DHT22;31328;51.402;0.016;2023-02-28T12:51:52;7.60;99.90
24902;DHT22;31328;51.402;0.016;2023-02-28T12:54:37;7.60;99.90
24902;DHT22;31328;51.402;0.016;2023-02-28T13:00:16;7.60;99.90
24902;DHT22;31328;51.402;0.016;2023-02-28T13:02:48;7.60;99.90
24902;DHT22;31328;51.402;0.016;2023-02-28T13:05:46;7.60;99.90
24902;DHT22;31328;51.402;0.016;2023-02-28T13:08:37;7.60;99.90
24902;DHT22;31328;51.402;0.016;2023-02-28T13:11:34;7.60;99.90
24902;DHT22;31328;51.402;0.016;2023-02-28T13:14:06;7.60;99.90
24902;DHT22;31328;51.402;0.016;2023-02-28T13:17:18;7.60;99.90
24902;DHT22;31328;51.402;0.016;2023-02-28T13:22:36;7.50;99.90
24902;DHT22;31328;51.402;0.016;2023-02-28T13:27:53;7.50;99.90
24902;DHT22;31328;51.402;0.016;2023-02-28T13:35:46;7.50;99.90
24902;DHT22;31328;51.402;0.016;2023-02-28T13:38:21;7.50;99.90
24902;DHT22;31328;51.402;0.016;2023-02-28T13:40:47;7.60;99.90
24902;DHT22;31328;51.402;0.016;2023-02-28T13:43:17;7.60;99.90
24902;DHT22;31328;51.402;0.016;2023-02-28T13:46:05;7.60;99.90
24902;DHT22;31328;51.402;0.016;2023-02-28T13:48:32;7.60;99.90
24902;DHT22;31328;51.402;0.016;2023-02-28T13:50:58;7.60;99.90
24902;DHT22;31328;51.402;0.016;2023-02-28T13:53:50;7.60;99.90
24902;DHT22;31328;51.402;0.016;2023-02-28T13:56:40;7.60;99.90
24902;DHT22;31328;51.402;0.016;2023-02-28T14:01:57;7.70;99.90
24902;DHT22;31328;51.402;0.016;2023-02-28T14:04:38;7.70;99.90
24902;DHT22;31328;51.402;0.016;2023-02-28T14:07:26;7.70;99.90
24902;DHT22;31328;51.402;0.016;2023-02-28T14:09:58;7.60;99.90
24902;DHT22;31328;51.402;0.016;2023-02-28T14:18:21;7.60;99.90
24902;DHT22;31328;51.402;0.016;2023-02-28T14:20:50;7.70;99.90
24902;DHT22;31328;51.402;0.016;2023-02-28T14:35:43;7.60;99.90
24902;DHT22;31328;51.402;0.016;2023-02-28T14:37:50;7.70;99.90
24902;DHT22;31328;51.402;0.016;2023-02-28T14:42:58;7.70;99.90
24902;DHT22;31328;51.402;0.016;2023-02-28T14:45:32;7.70;99.90
24902;DHT22;31328;51.402;0.016;2023-02-28T14:47:59;7.70;99.90
24902;DHT22;31328;51.402;0.016;2023-02-28T14:50:34;7.60;99.90
24902;DHT22;31328;51.402;0.016;2023-02-28T14:53:02;7.70;99.90
24902;DHT22;31328;51.402;0.016;2023-02-28T14:55:34;7.70;99.90
24902;DHT22;31328;51.402;0.016;2023-02-28T14:58:22;7.70;99.90
24902;DHT22;31328;51.402;0.016;2023-02-28T15:00:50;7.70;99.90
24902;DHT22;31328;51.402;0.016;2023-02-28T15:06:03;7.70;99.90
24902;DHT22;31328;51.402;0.016;2023-02-28T15:08:31;7.70;99.90
24902;DHT22;31328;51.402;0.016;2023-02-28T15:11:16;7.70;99.90
24902;DHT22;31328;51.402;0.016;2023-02-28T15:13:50;7.70;99.90
24902;DHT22;31328;51.402;0.016;2023-02-28T15:16:36;7.70;99.90
24902;DHT22;31328;51.402;0.016;2023-02-28T15:19:26;7.70;99.90
24902;DHT22;31328;51.402;0.016;2023-02-28T15:22:07;7.70;99.90
24902;DHT22;31328;51.402;0.016;2023-02-28T15:24:38;7.80;99.90
24902;DHT22;31328;51.402;0.016;2023-02-28T15:27:15;7.80;99.90
24902;DHT22;31328;51.402;0.016;2023-02-28T15:29:46;7.80;99.90
24902;DHT22;31328;51.402;0.016;2023-02-28T15:32:29;7.80;99.90
24902;DHT22;31328;51.402;0.016;2023-02-28T15:34:58;7.80;99.90
24902;DHT22;31328;51.402;0.016;2023-02-28T15:37:46;7.70;99.90
24902;DHT22;31328;51.402;0.016;2023-02-28T15:40:32;7.80;99.90
24902;DHT22;31328;51.402;0.016;2023-02-28T15:43:17;7.80;99.90
24902;DHT22;31328;51.402;0.016;2023-02-28T15:46:13;7.80;99.90
24902;DHT22;31328;51.402;0.016;2023-02-28T15:48:53;7.80;99.90
24902;DHT22;31328;51.402;0.016;2023-02-28T15:51:35;7.80;99.90
24902;DHT22;31328;51.402;0.016;2023-02-28T15:54:06;7.90;99.90
24902;DHT22;31328;51.402;0.016;2023-02-28T15:56:46;7.90;99.90
24902;DHT22;31328;51.402;0.016;2023-02-28T15:59:18;7.80;99.90
24902;DHT22;31328;51.402;0.016;2023-02-28T16:02:02;7.90;99.90
24902;DHT22;31328;51.402;0.016;2023-02-28T16:04:29;7.90;99.90
24902;DHT22;31328;51.402;0.016;2023-02-28T16:09:23;7.90;99.90
24902;DHT22;31328;51.402;0.016;2023-02-28T16:11:52;7.90;99.90
24902;DHT22;31328;51.402;0.016;2023-02-28T16:14:24;7.80;99.90
24902;DHT22;31328;51.402;0.016;2023-02-28T16:16:56;7.80;99.90
24902;DHT22;31328;51.402;0.016;2023-02-28T16:19:23;7.80;99.90
24902;DHT22;31328;51.402;0.016;2023-02-28T16:21:49;7.70;99.90
24902;DHT22;31328;51.402;0.016;2023-02-28T16:24:16;7.80;99.90
24902;DHT22;31328;51.402;0.016;2023-02-28T16:26:46;7.80;99.90
24902;DHT22;31328;51.402;0.016;2023-02-28T16:29:32;7.70;99.90
24902;DHT22;31328;51.402;0.016;2023-02-28T16:32:02;7.70;99.90
24902;DHT22;31328;51.402;0.016;2023-02-28T16:34:29;7.70;99.90
24902;DHT22;31328;51.402;0.016;2023-02-28T16:36:56;7.70;99.90
24902;DHT22;31328;51.402;0.016;2023-02-28T16:39:22;7.70;99.90
24902;DHT22;31328;51.402;0.016;2023-02-28T16:41:50;7.70;99.90
24902;DHT22;31328;51.402;0.016;2023-02-28T16:44:35;7.70;99.90
24902;DHT22;31328;51.402;0.016;2023-02-28T16:47:03;7.70;99.90
24902;DHT22;31328;51.402;0.016;2023-02-28T16:49:29;7.70;99.90
24902;DHT22;31328;51.402;0.016;2023-02-28T16:51:56;7.70;99.90
24902;DHT22;31328;51.402;0.016;2023-02-28T16:54:22;7.70;99.90
24902;DHT22;31328;51.402;0.016;2023-02-28T16:56:49;7.70;99.90
24902;DHT22;31328;51.402;0.016;2023-02-28T16:59:21;7.70;99.90
24902;DHT22;31328;51.402;0.016;2023-02-28T17:01:48;7.70;99.90
24902;DHT22;31328;51.402;0.016;2023-02-28T17:04:15;7.70;99.90
24902;DHT22;31328;51.402;0.016;2023-02-28T17:06:41;7.70;99.90
24902;DHT22;31328;51.402;0.016;2023-02-28T17:09:16;7.70;99.90
24902;DHT22;31328;51.402;0.016;2023-02-28T17:11:42;7.70;99.90
24902;DHT22;31328;51.402;0.016;2023-02-28T17:14:09;7.70;99.90
24902;DHT22;31328;51.402;0.016;2023-02-28T17:16:37;7.70;99.90
24902;DHT22;31328;51.402;0.016;2023-02-28T17:19:08;7.70;99.90
24902;DHT22;31328;51.402;0.016;2023-02-28T17:21:37;7.70;99.90
24902;DHT22;31328;51.402;0.016;2023-02-28T17:24:04;7.70;99.90
24902;DHT22;31328;51.402;0.016;2023-02-28T17:26:31;7.70;99.90
24902;DHT22;31328;51.402;0.016;2023-02-28T17:28:57;7.70;99.90
24902;DHT22;31328;51.402;0.016;2023-02-28T17:31:24;7.60;99.90
24902;DHT22;31328;51.402;0.016;2023-02-28T17:33:52;7.70;99.90
24902;DHT22;31328;51.402;0.016;2023-02-28T17:36:24;7.60;99.90
24902;DHT22;31328;51.402;0.016;2023-02-28T17:38:52;7.60;99.90
24902;DHT22;31328;51.402;0.016;2023-02-28T17:41:19;7.50;99.90
24902;DHT22;31328;51.402;0.016;2023-02-28T17:43:45;7.50;99.90
24902;DHT22;31328;51.402;0.016;2023-02-28T17:46:17;7.50;99.90
24902;DHT22;31328;51.402;0.016;2023-02-28T17:48:44;7.50;99.90
24902;DHT22;31328;51.402;0.016;2023-02-28T17:51:13;7.50;99.90
24902;DHT22;31328;51.402;0.016;2023-02-28T17:53:40;7.50;99.90
24902;DHT22;31328;51.402;0.016;2023-02-28T17:56:23;7.50;99.90
24902;DHT22;31328;51.402;0.016;2023-02-28T17:58:52;7.50;99.90
24902;DHT22;31328;51.402;0.016;2023-02-28T18:01:18;7.50;99.90
24902;DHT22;31328;51.402;0.016;2023-02-28T18:03:47;7.60;99.90
24902;DHT22;31328;51.402;0.016;2023-02-28T18:06:22;7.60;99.90
24902;DHT22;31328;51.402;0.016;2023-02-28T18:08:50;7.60;99.90
24902;DHT22;31328;51.402;0.016;2023-02-28T18:11:21;7.60;99.90
24902;DHT22;31328;51.402;0.016;2023-02-28T18:13:49;7.50;99.90
24902;DHT22;31328;51.402;0.016;2023-02-28T18:16:17;7.50;99.90
24902;DHT22;31328;51.402;0.016;2023-02-28T18:18:44;7.50;99.90